sensor_id;sensor_type;location;lat;lon;timestamp;pressure;altitude;pressure_sealevel;temperature;humidity
48790;BME280;41718;51.980;5.734;2022-07-23T00:03:46;101783.31;;;13.76;100.00
48790;BME280;41718;51.980;5.734;2022-07-23T00:08:48;101784.06;;;13.71;100.00
48790;BME280;41718;51.980;5.734;2022-07-23T00:13:49;101783.09;;;13.66;100.00
48790;BME280;41718;51.980;5.734;2022-07-23T00:18:51;101782.09;;;13.56;100.00
48790;BME280;41718;51.980;5.734;2022-07-23T00:23:53;101775.09;;;13.53;100.00
48790;BME280;41718;51.980;5.734;2022-07-23T00:28:54;101778.34;;;13.42;100.00
48790;BME280;41718;51.980;5.734;2022-07-23T00:33:56;101772.31;;;13.43;100.00
48790;BME280;41718;51.980;5.734;2022-07-23T00:38:58;101775.09;;;13.53;100.00
48790;BME280;41718;51.980;5.734;2022-07-23T00:44:20;101772.47;;;13.50;100.00
48790;BME280;41718;51.980;5.734;2022-07-23T00:49:24;101767.97;;;13.43;100.00
48790;BME280;41718;51.980;5.734;2022-07-23T00:54:27;101766.88;;;13.31;100.00
48790;BME280;41718;51.980;5.734;2022-07-23T00:59:29;101762.44;;;13.23;100.00
48790;BME280;41718;51.980;5.734;2022-07-23T01:04:30;101756.09;;;13.11;100.00
48790;BME280;41718;51.980;5.734;2022-07-23T01:09:32;101762.94;;;13.06;100.00
48790;BME280;41718;51.980;5.734;2022-07-23T01:14:34;101751.63;;;13.04;100.00
48790;BME280;41718;51.980;5.734;2022-07-23T01:19:35;101758.31;;;12.92;100.00
48790;BME280;41718;51.980;5.734;2022-07-23T01:24:37;101756.59;;;12.93;100.00
48790;BME280;41718;51.980;5.734;2022-07-23T01:29:39;101750.59;;;12.95;100.00
48790;BME280;41718;51.980;5.734;2022-07-23T01:34:40;101740.13;;;12.92;100.00
48790;BME280;41718;51.980;5.734;2022-07-23T01:39:42;101743.34;;;12.79;100.00
48790;BME280;41718;51.980;5.734;2022-07-23T01:44:44;101746.91;;;12.84;100.00
48790;BME280;41718;51.980;5.734;2022-07-23T01:49:45;101748.66;;;12.85;100.00
48790;BME280;41718;51.980;5.734;2022-07-23T01:54:47;101736.16;;;12.66;100.00
48790;BME280;41718;51.980;5.734;2022-07-23T01:59:48;101734.34;;;12.62;100.00
48790;BME280;41718;51.980;5.734;2022-07-23T02:04:50;101736.22;;;12.69;100.00
48790;BME280;41718;51.980;5.734;2022-07-23T02:09:51;101738.69;;;12.63;100.00
48790;BME280;41718;51.980;5.734;2022-07-23T02:14:53;101741.09;;;12.54;100.00
48790;BME280;41718;51.980;5.734;2022-07-23T02:19:55;101735.94;;;12.55;100.00
48790;BME280;41718;51.980;5.734;2022-07-23T02:24:56;101733.72;;;12.33;100.00
48790;BME280;41718;51.980;5.734;2022-07-23T02:29:58;101732.78;;;12.31;100.00
48790;BME280;41718;51.980;5.734;2022-07-23T02:34:59;101732.72;;;12.26;100.00
48790;BME280;41718;51.980;5.734;2022-07-23T02:40:01;101732.66;;;12.25;100.00
48790;BME280;41718;51.980;5.734;2022-07-23T02:45:03;101738.38;;;12.08;100.00
48790;BME280;41718;51.980;5.734;2022-07-23T02:50:05;101737.44;;;12.06;100.00
48790;BME280;41718;51.980;5.734;2022-07-23T02:55:08;101738.50;;;11.80;100.00
48790;BME280;41718;51.980;5.734;2022-07-23T03:00:11;101749.88;;;11.85;100.00
48790;BME280;41718;51.980;5.734;2022-07-23T03:05:12;101748.16;;;11.85;100.00
48790;BME280;41718;51.980;5.734;2022-07-23T03:10:14;101747.25;;;11.82;100.00
48790;BME280;41718;51.980;5.734;2022-07-23T03:15:15;101748.53;;;11.66;100.00
48790;BME280;41718;51.980;5.734;2022-07-23T03:20:17;101751.72;;;11.56;100.00
48790;BME280;41718;51.980;5.734;2022-07-23T03:25:19;101756.06;;;11.57;100.00
48790;BME280;41718;51.980;5.734;2022-07-23T03:30:20;101753.25;;;11.48;100.00
48790;BME280;41718;51.980;5.734;2022-07-23T03:35:22;101750.56;;;11.45;100.00
48790;BME280;41718;51.980;5.734;2022-07-23T03:40:24;101749.41;;;11.33;100.00
48790;BME280;41718;51.980;5.734;2022-07-23T03:45:25;101753.81;;;11.36;100.00
48790;BME280;41718;51.980;5.734;2022-07-23T03:50:27;101755.28;;;11.26;100.00
48790;BME280;41718;51.980;5.734;2022-07-23T03:55:28;101760.00;;;11.41;100.00
48790;BME280;41718;51.980;5.734;2022-07-23T04:00:30;101771.28;;;11.43;100.00
48790;BME280;41718;51.980;5.734;2022-07-23T04:05:31;101763.41;;;11.40;100.00
48790;BME280;41718;51.980;5.734;2022-07-23T04:10:33;101767.16;;;11.51;100.00
48790;BME280;41718;51.980;5.734;2022-07-23T04:15:34;101759.34;;;11.50;100.00
48790;BME280;41718;51.980;5.734;2022-07-23T04:20:36;101753.22;;;11.46;100.00
48790;BME280;41718;51.980;5.734;2022-07-23T04:25:41;101762.59;;;11.41;100.00
48790;BME280;41718;51.980;5.734;2022-07-23T04:30:43;101752.16;;;11.39;100.00
48790;BME280;41718;51.980;5.734;2022-07-23T04:35:44;101757.78;;;11.56;100.00
48790;BME280;41718;51.980;5.734;2022-07-23T04:40:46;101772.63;;;11.62;100.00
48790;BME280;41718;51.980;5.734;2022-07-23T04:45:47;101769.44;;;11.74;100.00
48790;BME280;41718;51.980;5.734;2022-07-23T04:50:49;101768.13;;;11.88;100.00
48790;BME280;41718;51.980;5.734;2022-07-23T04:55:51;101769.09;;;11.91;100.00
48790;BME280;41718;51.980;5.734;2022-07-23T05:00:52;101758.28;;;12.09;100.00
48790;BME280;41718;51.980;5.734;2022-07-23T05:05:54;101765.56;;;12.26;100.00
48790;BME280;41718;51.980;5.734;2022-07-23T05:10:56;101768.47;;;12.41;100.00
48790;BME280;41718;51.980;5.734;2022-07-23T05:15:57;101769.91;;;12.66;100.00
48790;BME280;41718;51.980;5.734;2022-07-23T05:20:59;101778.84;;;12.80;100.00
48790;BME280;41718;51.980;5.734;2022-07-23T05:26:00;101786.88;;;12.91;100.00
48790;BME280;41718;51.980;5.734;2022-07-23T05:31:02;101791.56;;;13.10;100.00
48790;BME280;41718;51.980;5.734;2022-07-23T05:36:05;101796.31;;;13.30;100.00
48790;BME280;41718;51.980;5.734;2022-07-23T05:41:07;101811.41;;;13.49;100.00
48790;BME280;41718;51.980;5.734;2022-07-23T05:46:08;101805.13;;;13.85;100.00
48790;BME280;41718;51.980;5.734;2022-07-23T05:51:11;101811.59;;;14.08;100.00
48790;BME280;41718;51.980;5.734;2022-07-23T05:56:12;101816.97;;;14.20;100.00
48790;BME280;41718;51.980;5.734;2022-07-23T06:01:14;101821.00;;;14.57;100.00
48790;BME280;41718;51.980;5.734;2022-07-23T06:06:15;101812.78;;;14.89;100.00
48790;BME280;41718;51.980;5.734;2022-07-23T06:11:17;101811.25;;;15.05;100.00
48790;BME280;41718;51.980;5.734;2022-07-23T06:16:18;101806.72;;;15.66;100.00
48790;BME280;41718;51.980;5.734;2022-07-23T06:21:20;101811.19;;;15.79;100.00
48790;BME280;41718;51.980;5.734;2022-07-23T06:26:42;101813.56;;;15.59;100.00
48790;BME280;41718;51.980;5.734;2022-07-23T06:31:44;101814.56;;;15.71;100.00
48790;BME280;41718;51.980;5.734;2022-07-23T06:36:45;101816.69;;;16.11;100.00
48790;BME280;41718;51.980;5.734;2022-07-23T06:41:47;101802.94;;;16.40;100.00
48790;BME280;41718;51.980;5.734;2022-07-23T06:46:51;101797.22;;;17.17;100.00
48790;BME280;41718;51.980;5.734;2022-07-23T06:51:53;101806.66;;;16.79;100.00
48790;BME280;41718;51.980;5.734;2022-07-23T06:56:55;101805.00;;;16.94;100.00
48790;BME280;41718;51.980;5.734;2022-07-23T07:01:56;101807.72;;;17.34;100.00
48790;BME280;41718;51.980;5.734;2022-07-23T07:06:59;101800.88;;;17.93;100.00
48790;BME280;41718;51.980;5.734;2022-07-23T07:12:01;101807.84;;;17.91;100.00
48790;BME280;41718;51.980;5.734;2022-07-23T07:17:03;101808.72;;;18.11;100.00
48790;BME280;41718;51.980;5.734;2022-07-23T07:22:04;101799.94;;;18.35;100.00
48790;BME280;41718;51.980;5.734;2022-07-23T07:27:06;101797.25;;;18.75;100.00
48790;BME280;41718;51.980;5.734;2022-07-23T07:32:07;101792.84;;;18.86;100.00
48790;BME280;41718;51.980;5.734;2022-07-23T07:37:09;101789.41;;;18.53;100.00
48790;BME280;41718;51.980;5.734;2022-07-23T07:42:10;101784.78;;;19.23;100.00
48790;BME280;41718;51.980;5.734;2022-07-23T07:47:12;101804.09;;;19.05;100.00
48790;BME280;41718;51.980;5.734;2022-07-23T07:52:16;101811.91;;;19.23;100.00
48790;BME280;41718;51.980;5.734;2022-07-23T07:57:18;101820.78;;;18.96;100.00
48790;BME280;41718;51.980;5.734;2022-07-23T08:02:19;101833.38;;;19.90;100.00
48790;BME280;41718;51.980;5.734;2022-07-23T08:07:21;101826.88;;;19.00;100.00
48790;BME280;41718;51.980;5.734;2022-07-23T08:12:23;101831.06;;;19.41;100.00
48790;BME280;41718;51.980;5.734;2022-07-23T08:17:24;101816.03;;;19.66;100.00
48790;BME280;41718;51.980;5.734;2022-07-23T08:22:41;101831.72;;;19.76;100.00
48790;BME280;41718;51.980;5.734;2022-07-23T08:27:43;101824.56;;;19.95;100.00
48790;BME280;41718;51.980;5.734;2022-07-23T08:32:55;101826.34;;;19.93;100.00
48790;BME280;41718;51.980;5.734;2022-07-23T08:37:58;101827.16;;;20.03;100.00
48790;BME280;41718;51.980;5.734;2022-07-23T08:43:05;101832.00;;;20.49;100.00
48790;BME280;41718;51.980;5.734;2022-07-23T08:48:20;101829.06;;;19.82;100.00
48790;BME280;41718;51.980;5.734;2022-07-23T08:53:24;101834.22;;;19.90;100.00
48790;BME280;41718;51.980;5.734;2022-07-23T08:58:25;101828.00;;;20.91;100.00
48790;BME280;41718;51.980;5.734;2022-07-23T09:03:32;101823.06;;;20.63;100.00
48790;BME280;41718;51.980;5.734;2022-07-23T09:08:42;101831.66;;;20.79;100.00
48790;BME280;41718;51.980;5.734;2022-07-23T09:13:52;101822.38;;;21.20;100.00
48790;BME280;41718;51.980;5.734;2022-07-23T09:19:02;101815.84;;;21.50;100.00
48790;BME280;41718;51.980;5.734;2022-07-23T09:24:09;101816.75;;;22.03;100.00
48790;BME280;41718;51.980;5.734;2022-07-23T09:29:22;101816.03;;;22.44;100.00
48790;BME280;41718;51.980;5.734;2022-07-23T09:34:35;101809.47;;;22.19;100.00
48790;BME280;41718;51.980;5.734;2022-07-23T09:39:40;101810.25;;;22.70;100.00
48790;BME280;41718;51.980;5.734;2022-07-23T09:44:43;101817.72;;;22.48;100.00
48790;BME280;41718;51.980;5.734;2022-07-23T09:50:08;101823.19;;;22.83;100.00
48790;BME280;41718;51.980;5.734;2022-07-23T09:55:11;101814.56;;;22.74;100.00
48790;BME280;41718;51.980;5.734;2022-07-23T10:00:15;101817.56;;;22.58;100.00
48790;BME280;41718;51.980;5.734;2022-07-23T10:05:17;101801.41;;;23.16;100.00
48790;BME280;41718;51.980;5.734;2022-07-23T10:10:21;101806.97;;;23.02;100.00
48790;BME280;41718;51.980;5.734;2022-07-23T10:15:24;101806.59;;;23.19;100.00
48790;BME280;41718;51.980;5.734;2022-07-23T10:20:26;101800.88;;;23.78;98.38
48790;BME280;41718;51.980;5.734;2022-07-23T10:25:32;101802.41;;;23.87;99.29
48790;BME280;41718;51.980;5.734;2022-07-23T10:31:05;101798.03;;;23.48;100.00
48790;BME280;41718;51.980;5.734;2022-07-23T10:41:37;101789.13;;;24.56;92.29
48790;BME280;41718;51.980;5.734;2022-07-23T10:47:02;101804.13;;;23.89;97.73
48790;BME280;41718;51.980;5.734;2022-07-23T10:57:16;101791.94;;;24.16;96.38
48790;BME280;41718;51.980;5.734;2022-07-23T11:02:22;101789.72;;;25.27;87.93
48790;BME280;41718;51.980;5.734;2022-07-23T11:07:24;101788.56;;;24.45;87.97
48790;BME280;41718;51.980;5.734;2022-07-23T11:17:34;101792.19;;;24.72;97.83
48790;BME280;41718;51.980;5.734;2022-07-23T11:27:43;101788.59;;;25.04;91.39
48790;BME280;41718;51.980;5.734;2022-07-23T11:32:45;101781.09;;;25.75;85.84
48790;BME280;41718;51.980;5.734;2022-07-23T11:37:48;101780.16;;;25.21;78.19
48790;BME280;41718;51.980;5.734;2022-07-23T11:42:58;101783.38;;;25.59;80.36
48790;BME280;41718;51.980;5.734;2022-07-23T11:48:01;101778.44;;;25.76;78.22
48790;BME280;41718;51.980;5.734;2022-07-23T11:53:03;101776.78;;;25.99;77.67
48790;BME280;41718;51.980;5.734;2022-07-23T11:58:05;101784.66;;;25.47;77.35
48790;BME280;41718;51.980;5.734;2022-07-23T12:03:07;101776.94;;;26.19;72.09
48790;BME280;41718;51.980;5.734;2022-07-23T12:08:10;101782.09;;;25.44;73.46
48790;BME280;41718;51.980;5.734;2022-07-23T12:13:14;101777.88;;;25.92;77.32
48790;BME280;41718;51.980;5.734;2022-07-23T12:18:20;101776.19;;;26.15;75.11
48790;BME280;41718;51.980;5.734;2022-07-23T12:23:24;101776.50;;;26.56;78.51
48790;BME280;41718;51.980;5.734;2022-07-23T12:28:31;101773.59;;;26.37;75.93
48790;BME280;41718;51.980;5.734;2022-07-23T12:33:37;101762.84;;;26.44;79.86
48790;BME280;41718;51.980;5.734;2022-07-23T12:38:44;101776.72;;;25.74;86.90
48790;BME280;41718;51.980;5.734;2022-07-23T12:43:48;101764.91;;;25.56;80.52
48790;BME280;41718;51.980;5.734;2022-07-23T12:48:52;101751.69;;;26.57;75.44
48790;BME280;41718;51.980;5.734;2022-07-23T12:54:08;101749.25;;;25.76;72.99
48790;BME280;41718;51.980;5.734;2022-07-23T12:59:13;101748.44;;;25.73;79.09
48790;BME280;41718;51.980;5.734;2022-07-23T13:04:21;101752.72;;;26.28;78.98
48790;BME280;41718;51.980;5.734;2022-07-23T13:09:25;101756.28;;;26.04;80.33
48790;BME280;41718;51.980;5.734;2022-07-23T13:14:27;101754.28;;;26.09;73.73
48790;BME280;41718;51.980;5.734;2022-07-23T13:19:29;101754.56;;;26.01;76.73
48790;BME280;41718;51.980;5.734;2022-07-23T13:24:31;101753.94;;;25.95;84.36
48790;BME280;41718;51.980;5.734;2022-07-23T13:29:33;101743.59;;;26.12;81.28
48790;BME280;41718;51.980;5.734;2022-07-23T13:34:37;101734.00;;;26.08;75.99
48790;BME280;41718;51.980;5.734;2022-07-23T13:39:41;101748.97;;;25.31;86.65
48790;BME280;41718;51.980;5.734;2022-07-23T13:44:43;101738.75;;;26.23;82.02
48790;BME280;41718;51.980;5.734;2022-07-23T13:49:44;101729.63;;;26.07;87.08
48790;BME280;41718;51.980;5.734;2022-07-23T13:54:48;101730.31;;;25.60;85.47
48790;BME280;41718;51.980;5.734;2022-07-23T13:59:50;101728.81;;;25.52;88.63
48790;BME280;41718;51.980;5.734;2022-07-23T14:04:52;101741.28;;;25.22;88.04
48790;BME280;41718;51.980;5.734;2022-07-23T14:09:54;101741.50;;;25.16;86.94
48790;BME280;41718;51.980;5.734;2022-07-23T14:14:56;101739.16;;;25.05;92.64
48790;BME280;41718;51.980;5.734;2022-07-23T14:19:58;101736.28;;;25.13;87.24
48790;BME280;41718;51.980;5.734;2022-07-23T14:25:00;101735.09;;;24.93;92.17
48790;BME280;41718;51.980;5.734;2022-07-23T14:30:04;101740.97;;;24.44;98.90
48790;BME280;41718;51.980;5.734;2022-07-23T14:35:06;101733.41;;;24.61;94.35
48790;BME280;41718;51.980;5.734;2022-07-23T14:40:11;101734.34;;;25.18;92.56
48790;BME280;41718;51.980;5.734;2022-07-23T14:45:12;101733.75;;;25.09;93.90
48790;BME280;41718;51.980;5.734;2022-07-23T14:50:14;101734.69;;;24.77;92.42
48790;BME280;41718;51.980;5.734;2022-07-23T14:55:16;101737.13;;;24.23;89.58
48790;BME280;41718;51.980;5.734;2022-07-23T15:00:19;101738.00;;;24.23;92.98
48790;BME280;41718;51.980;5.734;2022-07-23T15:05:24;101742.31;;;24.26;100.00
48790;BME280;41718;51.980;5.734;2022-07-23T15:10:27;101735.59;;;24.14;92.45
48790;BME280;41718;51.980;5.734;2022-07-23T15:15:31;101727.34;;;24.57;91.88
48790;BME280;41718;51.980;5.734;2022-07-23T15:20:33;101729.41;;;23.81;88.82
48790;BME280;41718;51.980;5.734;2022-07-23T15:25:41;101719.78;;;24.44;88.48
48790;BME280;41718;51.980;5.734;2022-07-23T15:30:51;101719.50;;;24.22;85.14
48790;BME280;41718;51.980;5.734;2022-07-23T15:35:54;101710.19;;;24.41;94.11
48790;BME280;41718;51.980;5.734;2022-07-23T15:40:58;101716.44;;;24.68;84.02
48790;BME280;41718;51.980;5.734;2022-07-23T15:45:59;101714.44;;;24.47;85.18
48790;BME280;41718;51.980;5.734;2022-07-23T15:51:02;101702.00;;;24.49;91.09
48790;BME280;41718;51.980;5.734;2022-07-23T15:56:05;101698.53;;;24.76;88.71
48790;BME280;41718;51.980;5.734;2022-07-23T16:01:09;101705.47;;;24.80;88.13
48790;BME280;41718;51.980;5.734;2022-07-23T16:06:11;101704.44;;;24.86;90.25
48790;BME280;41718;51.980;5.734;2022-07-23T16:11:18;101707.59;;;24.38;95.46
48790;BME280;41718;51.980;5.734;2022-07-23T16:16:20;101708.53;;;24.04;95.24
48790;BME280;41718;51.980;5.734;2022-07-23T16:21:24;101703.91;;;24.45;94.11
48790;BME280;41718;51.980;5.734;2022-07-23T16:26:26;101696.53;;;24.55;92.75
48790;BME280;41718;51.980;5.734;2022-07-23T16:31:27;101701.28;;;24.44;94.21
48790;BME280;41718;51.980;5.734;2022-07-23T16:36:32;101704.16;;;24.03;94.86
48790;BME280;41718;51.980;5.734;2022-07-23T16:41:35;101692.13;;;24.85;98.42
48790;BME280;41718;51.980;5.734;2022-07-23T16:46:38;101692.66;;;24.67;93.58
48790;BME280;41718;51.980;5.734;2022-07-23T16:51:39;101686.59;;;24.63;98.76
48790;BME280;41718;51.980;5.734;2022-07-23T16:56:42;101682.91;;;24.97;88.91
48790;BME280;41718;51.980;5.734;2022-07-23T17:01:44;101681.84;;;24.74;95.97
48790;BME280;41718;51.980;5.734;2022-07-23T17:06:45;101689.25;;;24.63;99.81
48790;BME280;41718;51.980;5.734;2022-07-23T17:11:47;101680.50;;;25.17;92.44
48790;BME280;41718;51.980;5.734;2022-07-23T17:16:49;101680.00;;;25.06;88.83
48790;BME280;41718;51.980;5.734;2022-07-23T17:21:50;101693.38;;;24.42;92.39
48790;BME280;41718;51.980;5.734;2022-07-23T17:26:52;101690.72;;;24.73;93.33
48790;BME280;41718;51.980;5.734;2022-07-23T17:31:54;101691.69;;;25.27;88.51
48790;BME280;41718;51.980;5.734;2022-07-23T17:36:56;101684.69;;;25.24;89.86
48790;BME280;41718;51.980;5.734;2022-07-23T17:41:57;101687.91;;;25.07;97.53
48790;BME280;41718;51.980;5.734;2022-07-23T17:46:59;101692.66;;;24.95;90.43
48790;BME280;41718;51.980;5.734;2022-07-23T17:52:03;101691.97;;;25.18;90.01
48790;BME280;41718;51.980;5.734;2022-07-23T17:57:04;101697.47;;;25.11;90.49
48790;BME280;41718;51.980;5.734;2022-07-23T18:02:07;101694.84;;;24.82;90.50
48790;BME280;41718;51.980;5.734;2022-07-23T18:07:09;101692.72;;;24.93;90.02
48790;BME280;41718;51.980;5.734;2022-07-23T18:12:10;101708.63;;;24.64;93.59
48790;BME280;41718;51.980;5.734;2022-07-23T18:17:12;101709.44;;;24.66;96.05
48790;BME280;41718;51.980;5.734;2022-07-23T18:22:13;101714.31;;;24.51;100.00
48790;BME280;41718;51.980;5.734;2022-07-23T18:27:15;101722.38;;;24.14;100.00
48790;BME280;41718;51.980;5.734;2022-07-23T18:32:17;101714.22;;;24.22;100.00
48790;BME280;41718;51.980;5.734;2022-07-23T18:37:18;101724.66;;;23.94;100.00
48790;BME280;41718;51.980;5.734;2022-07-23T18:42:35;101707.91;;;23.95;100.00
48790;BME280;41718;51.980;5.734;2022-07-23T18:47:37;101711.06;;;23.75;100.00
48790;BME280;41718;51.980;5.734;2022-07-23T18:52:39;101708.28;;;23.45;100.00
48790;BME280;41718;51.980;5.734;2022-07-23T18:57:41;101716.06;;;23.14;100.00
48790;BME280;41718;51.980;5.734;2022-07-23T19:02:42;101721.97;;;22.87;100.00
48790;BME280;41718;51.980;5.734;2022-07-23T19:07:45;101719.56;;;22.74;100.00
48790;BME280;41718;51.980;5.734;2022-07-23T19:12:47;101714.25;;;22.34;100.00
48790;BME280;41718;51.980;5.734;2022-07-23T19:17:49;101721.16;;;22.40;100.00
48790;BME280;41718;51.980;5.734;2022-07-23T19:22:51;101726.63;;;21.83;100.00
48790;BME280;41718;51.980;5.734;2022-07-23T19:27:52;101729.25;;;21.84;100.00
48790;BME280;41718;51.980;5.734;2022-07-23T19:32:54;101734.66;;;21.75;100.00
48790;BME280;41718;51.980;5.734;2022-07-23T19:37:56;101733.69;;;21.25;100.00
48790;BME280;41718;51.980;5.734;2022-07-23T19:42:57;101742.84;;;21.00;100.00
48790;BME280;41718;51.980;5.734;2022-07-23T19:47:59;101747.13;;;21.05;100.00
48790;BME280;41718;51.980;5.734;2022-07-23T19:53:01;101748.63;;;20.57;100.00
48790;BME280;41718;51.980;5.734;2022-07-23T19:58:03;101738.78;;;20.74;100.00
48790;BME280;41718;51.980;5.734;2022-07-23T20:03:04;101755.94;;;20.29;100.00
48790;BME280;41718;51.980;5.734;2022-07-23T20:08:06;101753.66;;;19.94;100.00
48790;BME280;41718;51.980;5.734;2022-07-23T20:13:08;101766.94;;;19.80;100.00
48790;BME280;41718;51.980;5.734;2022-07-23T20:18:09;101773.25;;;19.45;100.00
48790;BME280;41718;51.980;5.734;2022-07-23T20:23:11;101783.06;;;19.16;100.00
48790;BME280;41718;51.980;5.734;2022-07-23T20:28:13;101776.09;;;19.10;100.00
48790;BME280;41718;51.980;5.734;2022-07-23T20:33:15;101785.88;;;18.84;100.00
48790;BME280;41718;51.980;5.734;2022-07-23T20:38:17;101791.97;;;18.84;100.00
48790;BME280;41718;51.980;5.734;2022-07-23T20:43:19;101787.59;;;18.82;100.00
48790;BME280;41718;51.980;5.734;2022-07-23T20:48:21;101785.06;;;18.56;100.00
48790;BME280;41718;51.980;5.734;2022-07-23T20:53:29;101792.91;;;18.52;100.00
48790;BME280;41718;51.980;5.734;2022-07-23T20:58:31;101791.22;;;18.33;100.00
48790;BME280;41718;51.980;5.734;2022-07-23T21:03:32;101790.34;;;18.20;100.00
48790;BME280;41718;51.980;5.734;2022-07-23T21:08:34;101791.28;;;17.99;100.00
48790;BME280;41718;51.980;5.734;2022-07-23T21:13:36;101791.25;;;18.01;100.00
48790;BME280;41718;51.980;5.734;2022-07-23T21:18:38;101799.13;;;17.77;100.00
48790;BME280;41718;51.980;5.734;2022-07-23T21:23:45;101799.97;;;17.80;100.00
48790;BME280;41718;51.980;5.734;2022-07-23T21:28:48;101798.19;;;17.58;100.00
48790;BME280;41718;51.980;5.734;2022-07-23T21:33:49;101799.00;;;17.34;100.00
48790;BME280;41718;51.980;5.734;2022-07-23T21:38:51;101799.88;;;17.25;100.00
48790;BME280;41718;51.980;5.734;2022-07-23T21:43:53;101803.34;;;17.22;100.00
48790;BME280;41718;51.980;5.734;2022-07-23T21:48:54;101802.44;;;17.08;100.00
48790;BME280;41718;51.980;5.734;2022-07-23T21:53:56;101801.47;;;16.89;100.00
48790;BME280;41718;51.980;5.734;2022-07-23T21:58:59;101810.09;;;16.73;100.00
48790;BME280;41718;51.980;5.734;2022-07-23T22:04:02;101807.53;;;16.78;100.00
48790;BME280;41718;51.980;5.734;2022-07-23T22:09:06;101804.88;;;16.73;100.00
48790;BME280;41718;51.980;5.734;2022-07-23T22:14:08;101805.66;;;16.60;100.00
48790;BME280;41718;51.980;5.734;2022-07-23T22:19:10;101805.59;;;16.49;100.00
48790;BME280;41718;51.980;5.734;2022-07-23T22:24:16;101799.50;;;16.46;100.00
48790;BME280;41718;51.980;5.734;2022-07-23T22:29:18;101801.19;;;16.37;100.00
48790;BME280;41718;51.980;5.734;2022-07-23T22:34:23;101806.31;;;16.27;100.00
48790;BME280;41718;51.980;5.734;2022-07-23T22:39:24;101801.88;;;16.15;100.00
48790;BME280;41718;51.980;5.734;2022-07-23T22:44:26;101787.91;;;16.07;100.00
48790;BME280;41718;51.980;5.734;2022-07-23T22:49:28;101798.38;;;16.08;100.00
48790;BME280;41718;51.980;5.734;2022-07-23T22:54:29;101806.00;;;15.85;100.00
48790;BME280;41718;51.980;5.734;2022-07-23T22:59:32;101806.88;;;15.83;100.00
48790;BME280;41718;51.980;5.734;2022-07-23T23:04:34;101800.69;;;15.73;100.00
48790;BME280;41718;51.980;5.734;2022-07-23T23:09:35;101802.38;;;15.67;100.00
48790;BME280;41718;51.980;5.734;2022-07-23T23:14:37;101797.16;;;15.70;100.00
48790;BME280;41718;51.980;5.734;2022-07-23T23:19:38;101794.47;;;15.60;100.00
48790;BME280;41718;51.980;5.734;2022-07-23T23:24:41;101789.03;;;15.42;100.00
48790;BME280;41718;51.980;5.734;2022-07-23T23:29:43;101791.72;;;15.48;100.00
48790;BME280;41718;51.980;5.734;2022-07-23T23:34:49;101788.13;;;15.37;100.00
48790;BME280;41718;51.980;5.734;2022-07-23T23:39:51;101786.38;;;15.36;100.00
48790;BME280;41718;51.980;5.734;2022-07-23T23:44:53;101785.50;;;15.34;100.00
48790;BME280;41718;51.980;5.734;2022-07-23T23:49:54;101783.69;;;15.27;100.00
48790;BME280;41718;51.980;5.734;2022-07-23T23:54:56;101776.63;;;15.20;100.00
48790;BME280;41718;51.980;5.734;2022-07-23T23:59:58;101778.38;;;15.18;100.00
